Time;durP1;ratioP1;P1;durP2;ratioP2;P2;SDS_P1;SDS_P2;PMS_P1;PMS_P2;Temp;Humidity;BMP_temperature;BMP_pressure;BME280_temperature;BME280_humidity;BME280_pressure;Samples;Min_cycle;Max_cycle;Signal;HPM_P1;HPM_P2
2021/10/15 00:00:58;;;;;;;2.30;1.40;;;13.30;99.90;;;;;;5018718;28;20049;-77
2021/10/15 00:03:24;;;;;;;2.08;1.40;;;13.40;99.90;;;;;;5049190;28;20502;-77
2021/10/15 00:05:49;;;;;;;1.95;1.38;;;13.30;99.90;;;;;;5026036;28;20041;-78
2021/10/15 00:08:15;;;;;;;4.15;1.95;;;13.40;99.90;;;;;;5033164;28;20057;-77
2021/10/15 00:10:41;;;;;;;3.28;1.83;;;13.40;99.90;;;;;;5046490;28;20540;-78
2021/10/15 00:13:07;;;;;;;2.95;1.25;;;13.40;99.90;;;;;;5024623;28;20120;-78
2021/10/15 00:15:33;;;;;;;;;;;13.40;99.90;;;;;;5044569;28;20116;-80
2021/10/15 00:17:59;;;;;;;1.80;1.38;;;13.40;99.90;;;;;;5040794;28;20438;-80
2021/10/15 00:20:24;;;;;;;2.22;1.27;;;13.30;99.90;;;;;;5014385;28;20045;-79
2021/10/15 00:22:50;;;;;;;1.38;1.13;;;13.30;99.90;;;;;;5025355;28;20064;-80
2021/10/15 00:25:16;;;;;;;2.50;1.50;;;13.40;99.90;;;;;;5031361;28;20425;-80
2021/10/15 00:27:41;;;;;;;3.90;1.80;;;13.40;99.90;;;;;;5026593;28;20042;-77
2021/10/15 00:30:07;;;;;;;1.98;1.42;;;13.50;99.90;;;;;;5042410;28;20454;-78
2021/10/15 00:32:33;;;;;;;;;;;13.50;99.90;;;;;;5039457;28;20045;-77
2021/10/15 00:34:59;;;;;;;1.98;1.13;;;13.40;99.90;;;;;;5048810;28;19979;-77
2021/10/15 00:37:24;;;;;;;11.30;1.67;;;13.40;99.90;;;;;;5052646;28;20041;-77
2021/10/15 00:39:50;;;;;;;2.90;1.85;;;13.50;99.90;;;;;;5056343;28;20112;-77
2021/10/15 00:42:16;;;;;;;1.33;1.23;;;13.50;99.90;;;;;;5049493;28;21374;-77
2021/10/15 00:44:43;;;;;;;1.60;1.20;;;13.40;99.90;;;;;;5020671;28;20041;-78
2021/10/15 00:47:09;;;;;;;1.40;1.02;;;13.40;99.90;;;;;;5063900;28;20033;-77
2021/10/15 00:49:35;;;;;;;2.75;1.30;;;13.40;99.90;;;;;;5048716;28;20497;-78
2021/10/15 00:52:01;;;;;;;5.07;1.25;;;13.50;99.90;;;;;;5035756;28;20625;-76
2021/10/15 00:54:27;;;;;;;;;;;13.40;99.90;;;;;;5062999;28;20437;-77
2021/10/15 00:56:53;;;;;;;1.45;1.35;;;13.50;99.90;;;;;;5032212;28;19975;-76
2021/10/15 00:59:19;;;;;;;2.33;1.65;;;13.50;99.90;;;;;;5053535;28;20136;-78
2021/10/15 01:01:45;;;;;;;2.47;1.15;;;13.40;99.90;;;;;;5009175;28;20048;-77
2021/10/15 01:04:11;;;;;;;;;;;13.50;99.90;;;;;;5052191;28;20494;-77
2021/10/15 01:06:37;;;;;;;4.30;1.45;;;13.50;99.90;;;;;;5046307;28;20026;-78
2021/10/15 01:09:04;;;;;;;4.10;1.50;;;13.50;99.90;;;;;;5028783;28;20080;-76
2021/10/15 01:11:29;;;;;;;2.22;1.42;;;13.40;99.90;;;;;;5058423;28;20037;-78
2021/10/15 01:13:56;;;;;;;2.83;1.48;;;13.40;99.90;;;;;;5049264;28;20044;-78
2021/10/15 01:16:25;;;;;;;;;;;13.40;99.90;;;;;;5042611;28;20060;-77
2021/10/15 01:18:51;;;;;;;1.75;1.33;;;13.50;99.90;;;;;;5006286;28;19936;-77
2021/10/15 01:21:17;;;;;;;2.03;1.77;;;13.40;99.90;;;;;;5024959;28;20045;-77
2021/10/15 01:23:43;;;;;;;1.90;1.50;;;13.40;99.90;;;;;;5001169;28;20044;-77
2021/10/15 01:26:09;;;;;;;1.70;1.40;;;13.40;99.90;;;;;;5035890;28;20510;-77
2021/10/15 01:28:35;;;;;;;3.70;2.05;;;13.40;99.90;;;;;;5035357;28;20048;-77
2021/10/15 01:31:01;;;;;;;1.27;0.95;;;13.50;99.90;;;;;;5040706;28;20025;-78
2021/10/15 01:33:27;;;;;;;1.20;1.10;;;13.50;99.90;;;;;;5045424;28;20042;-77
2021/10/15 01:35:53;;;;;;;;;;;13.40;99.90;;;;;;5048406;28;20041;-77
2021/10/15 01:38:19;;;;;;;4.25;2.35;;;13.40;99.90;;;;;;5035816;28;19974;-79
2021/10/15 01:40:45;;;;;;;6.60;2.17;;;13.40;99.90;;;;;;5067925;28;20033;-76
2021/10/15 01:43:18;;;;;;;2.80;1.30;;;13.40;99.90;;;;;;5035604;28;20048;-76
2021/10/15 01:45:44;;;;;;;3.00;1.58;;;13.40;99.90;;;;;;5053156;28;20080;-77
2021/10/15 01:48:10;;;;;;;1.85;1.42;;;13.40;99.90;;;;;;5005902;28;20079;-77
2021/10/15 01:50:35;;;;;;;8.60;1.85;;;13.40;99.90;;;;;;5022293;28;20037;-76
2021/10/15 01:53:02;;;;;;;4.18;2.00;;;13.50;99.90;;;;;;5030827;28;20046;-79
2021/10/15 01:55:28;;;;;;;6.88;2.22;;;13.50;99.90;;;;;;5059126;28;20044;-77
2021/10/15 01:57:54;;;;;;;2.28;1.30;;;13.50;99.90;;;;;;5047472;28;20046;-76
2021/10/15 02:00:20;;;;;;;2.33;1.48;;;13.50;99.90;;;;;;5010769;28;20375;-77
2021/10/15 02:02:46;;;;;;;2.08;1.77;;;13.50;99.90;;;;;;5054318;28;20041;-77
2021/10/15 02:05:14;;;;;;;4.95;2.17;;;13.50;99.90;;;;;;5037146;28;20487;-78
2021/10/15 02:07:40;;;;;;;4.63;2.63;;;13.40;99.90;;;;;;5021653;28;20069;-77
2021/10/15 02:10:08;;;;;;;2.38;1.45;;;13.40;99.90;;;;;;5028454;28;20037;-78
2021/10/15 02:12:34;;;;;;;6.25;1.77;;;13.50;99.90;;;;;;5040156;28;20079;-76
2021/10/15 02:14:59;;;;;;;2.58;1.27;;;13.50;99.90;;;;;;5021429;28;20080;-76
2021/10/15 02:17:25;;;;;;;9.32;1.60;;;13.50;99.90;;;;;;5034732;28;20037;-76
2021/10/15 02:19:51;;;;;;;1.88;1.60;;;13.50;99.90;;;;;;5029514;28;20525;-77
2021/10/15 02:22:17;;;;;;;1.70;1.27;;;13.50;99.90;;;;;;5038829;28;20119;-76
2021/10/15 02:24:43;;;;;;;3.97;2.00;;;13.50;99.90;;;;;;5030034;28;20103;-76
2021/10/15 02:27:09;;;;;;;6.70;2.20;;;13.50;99.90;;;;;;5046176;28;20047;-76
2021/10/15 02:29:34;;;;;;;4.22;1.88;;;13.50;99.90;;;;;;5051776;28;20049;-75
2021/10/15 02:32:00;;;;;;;2.70;1.80;;;13.50;99.90;;;;;;5041879;28;20041;-76
2021/10/15 02:34:26;;;;;;;2.10;1.48;;;13.50;99.90;;;;;;5042304;28;20474;-77
2021/10/15 02:36:51;;;;;;;3.20;2.08;;;13.50;99.90;;;;;;5031963;28;20387;-78
2021/10/15 02:39:17;;;;;;;2.97;1.83;;;13.40;99.90;;;;;;5030564;28;20073;-77
2021/10/15 02:41:43;;;;;;;2.30;1.80;;;13.50;99.90;;;;;;5028725;28;20045;-77
2021/10/15 02:44:10;;;;;;;;;;;13.50;99.90;;;;;;5031972;28;20045;-76
2021/10/15 02:46:36;;;;;;;2.53;1.52;;;13.40;99.90;;;;;;5034037;28;19964;-76
2021/10/15 02:49:03;;;;;;;4.70;2.75;;;13.40;99.90;;;;;;5059773;28;20083;-76
2021/10/15 02:51:29;;;;;;;3.63;2.22;;;13.40;99.90;;;;;;5053532;28;20448;-76
2021/10/15 02:53:55;;;;;;;2.40;2.20;;;13.40;99.90;;;;;;5030794;28;20072;-76
2021/10/15 02:56:21;;;;;;;7.55;2.40;;;13.40;99.90;;;;;;5061958;28;20049;-77
2021/10/15 02:58:47;;;;;;;3.20;1.95;;;13.40;99.90;;;;;;5035056;28;20049;-77
2021/10/15 03:01:12;;;;;;;3.80;3.33;;;13.40;99.90;;;;;;5027124;28;20052;-76
2021/10/15 03:03:39;;;;;;;2.10;1.80;;;13.30;99.90;;;;;;5058723;28;20052;-76
2021/10/15 03:06:04;;;;;;;;;;;13.30;99.90;;;;;;5028159;28;20049;-76
2021/10/15 03:08:30;;;;;;;5.18;2.75;;;13.30;99.90;;;;;;5029823;28;19967;-76
2021/10/15 03:10:56;;;;;;;3.35;2.55;;;13.30;99.90;;;;;;5060077;28;20459;-76
2021/10/15 03:13:21;;;;;;;3.72;2.45;;;13.30;99.90;;;;;;5029347;28;20052;-76
2021/10/15 03:15:47;;;;;;;4.32;2.47;;;13.30;99.90;;;;;;5036736;28;20120;-76
2021/10/15 03:18:14;;;;;;;3.80;2.70;;;13.30;99.90;;;;;;5030514;28;20537;-76
2021/10/15 03:20:40;;;;;;;3.72;2.67;;;13.30;99.90;;;;;;5032940;28;20045;-76
2021/10/15 03:23:06;;;;;;;4.15;3.75;;;13.30;99.90;;;;;;5007420;28;20375;-76
2021/10/15 03:25:32;;;;;;;;;;;13.30;99.90;;;;;;5018317;28;20495;-76
2021/10/15 03:27:58;;;;;;;2.17;1.73;;;13.30;99.90;;;;;;5034500;28;19961;-76
2021/10/15 03:30:24;;;;;;;11.32;2.15;;;13.30;99.90;;;;;;5041989;28;20052;-76
2021/10/15 03:32:50;;;;;;;3.40;2.40;;;13.30;99.90;;;;;;5030659;28;20033;-76
2021/10/15 03:35:15;;;;;;;4.88;3.00;;;13.40;99.90;;;;;;5050113;28;20052;-75
2021/10/15 03:37:41;;;;;;;4.78;2.38;;;13.40;99.90;;;;;;5005890;28;20073;-77
2021/10/15 03:40:08;;;;;;;4.45;2.47;;;13.40;99.90;;;;;;5041503;28;20395;-77
2021/10/15 03:42:34;;;;;;;3.17;2.22;;;13.40;99.90;;;;;;5016664;28;20049;-77
2021/10/15 03:45:00;;;;;;;4.38;2.03;;;13.40;99.90;;;;;;5044934;28;20494;-78
2021/10/15 03:47:25;;;;;;;1.25;1.15;;;13.40;99.90;;;;;;5026407;28;20072;-77
2021/10/15 03:49:51;;;;;;;6.70;3.38;;;13.40;99.90;;;;;;5062647;28;20128;-77
2021/10/15 03:52:17;;;;;;;2.55;2.15;;;13.50;99.90;;;;;;5023507;28;20087;-77
2021/10/15 03:54:42;;;;;;;3.58;2.83;;;13.50;99.90;;;;;;5039592;28;20502;-78
2021/10/15 03:57:08;;;;;;;3.92;2.47;;;13.50;99.90;;;;;;5030405;28;20048;-77
2021/10/15 03:59:34;;;;;;;6.60;2.28;;;13.60;99.90;;;;;;5046235;28;20095;-76
2021/10/15 04:02:00;;;;;;;5.80;2.03;;;13.60;99.90;;;;;;5046382;28;20083;-76
2021/10/15 04:04:28;;;;;;;2.92;2.05;;;13.60;99.90;;;;;;5052087;28;20510;-77
2021/10/15 04:06:54;;;;;;;2.55;1.83;;;13.60;99.90;;;;;;5064537;28;20103;-76
2021/10/15 04:09:20;;;;;;;8.13;2.10;;;13.70;99.90;;;;;;5025398;28;20103;-74
2021/10/15 04:11:46;;;;;;;5.90;2.10;;;13.70;99.90;;;;;;5028490;28;20034;-76
2021/10/15 04:14:11;;;;;;;8.00;3.35;;;13.70;99.90;;;;;;5012440;28;20061;-76
2021/10/15 04:16:37;;;;;;;6.78;2.38;;;13.70;99.90;;;;;;5016341;28;20060;-76
2021/10/15 04:19:03;;;;;;;5.93;2.85;;;13.60;99.90;;;;;;5017427;28;20494;-76
2021/10/15 04:21:28;;;;;;;;;;;13.60;99.90;;;;;;5019061;28;20053;-75
2021/10/15 04:23:54;;;;;;;5.20;1.67;;;13.50;99.90;;;;;;5054273;28;19917;-77
2021/10/15 04:26:20;;;;;;;6.68;2.97;;;13.30;99.90;;;;;;5038814;28;20044;-78
2021/10/15 04:28:45;;;;;;;4.18;2.58;;;13.20;99.90;;;;;;5036143;28;20175;-78
2021/10/15 04:31:11;;;;;;;5.13;2.20;;;13.10;99.90;;;;;;5040882;28;20056;-78
2021/10/15 04:33:37;;;;;;;4.00;2.38;;;13.00;99.90;;;;;;5030802;28;20049;-78
2021/10/15 04:36:03;;;;;;;5.50;2.90;;;12.90;99.90;;;;;;5034666;28;20044;-77
2021/10/15 04:38:28;;;;;;;6.15;2.92;;;12.80;99.90;;;;;;5052069;28;20045;-78
2021/10/15 04:40:54;;;;;;;3.58;1.70;;;12.80;99.90;;;;;;5016993;28;20120;-78
2021/10/15 04:43:20;;;;;;;2.88;2.30;;;12.70;99.90;;;;;;5016096;28;20125;-78
2021/10/15 04:45:46;;;;;;;2.40;2.08;;;12.60;99.90;;;;;;5033377;28;20041;-78
2021/10/15 04:48:11;;;;;;;5.47;1.70;;;12.60;99.90;;;;;;5063742;28;20099;-77
2021/10/15 04:50:37;;;;;;;1.08;0.90;;;12.60;99.90;;;;;;5036302;28;20061;-79
2021/10/15 04:53:05;;;;;;;1.60;0.80;;;12.50;99.90;;;;;;5037984;28;20055;-79
2021/10/15 04:55:31;;;;;;;1.30;1.02;;;12.30;99.90;;;;;;5023317;28;20034;-77
2021/10/15 04:57:57;;;;;;;0.50;0.50;;;12.10;99.90;;;;;;5023313;28;20489;-76
2021/10/15 05:00:27;;;;;;;1.48;0.50;;;11.90;99.90;;;;;;5024272;28;20281;-76
2021/10/15 05:02:53;;;;;;;0.95;0.60;;;11.70;99.90;;;;;;5031738;28;20041;-79
2021/10/15 05:05:22;;;;;;;0.50;0.50;;;11.60;99.90;;;;;;5041275;28;21728;-78
2021/10/15 05:07:48;;;;;;;0.47;0.47;;;11.30;99.90;;;;;;5011937;28;20049;-78
2021/10/15 05:10:15;;;;;;;0.40;0.40;;;11.10;99.90;;;;;;5063689;28;20129;-78
2021/10/15 05:12:41;;;;;;;0.50;0.50;;;11.00;99.90;;;;;;5033758;28;20120;-78
2021/10/15 05:15:11;;;;;;;0.55;0.55;;;10.80;99.90;;;;;;5032770;28;20128;-78
2021/10/15 05:17:38;;;;;;;0.60;0.60;;;10.70;99.90;;;;;;5010083;28;20053;-77
2021/10/15 05:20:06;;;;;;;2.92;0.77;;;10.70;99.90;;;;;;5031090;28;20049;-80
2021/10/15 05:22:32;;;;;;;8.43;1.25;;;10.60;99.90;;;;;;5018662;28;20449;-78
2021/10/15 05:24:57;;;;;;;0.55;0.55;;;10.50;99.90;;;;;;5029911;28;20123;-78
2021/10/15 05:27:23;;;;;;;5.38;0.95;;;10.50;99.90;;;;;;5016667;28;20368;-78
2021/10/15 05:32:36;;;;;;;0.50;0.50;;;10.50;99.90;;;;;;5047286;28;20042;-78
2021/10/15 05:35:04;;;;;;;4.00;1.35;;;10.40;99.90;;;;;;5047880;28;20536;-78
2021/10/15 05:37:29;;;;;;;0.55;0.55;;;10.40;99.90;;;;;;5063543;28;20394;-80
2021/10/15 05:39:55;;;;;;;0.60;0.52;;;10.40;99.90;;;;;;5065234;28;20044;-79
2021/10/15 05:42:21;;;;;;;0.40;0.40;;;10.40;99.90;;;;;;5030583;28;20192;-79
2021/10/15 05:44:47;;;;;;;0.65;0.65;;;10.30;99.90;;;;;;5047246;28;20124;-81
2021/10/15 05:47:14;;;;;;;0.70;0.70;;;10.20;99.90;;;;;;5034655;28;20053;-80
2021/10/15 05:49:40;;;;;;;0.88;0.80;;;10.20;99.90;;;;;;5059900;28;20056;-79
2021/10/15 05:52:11;;;;;;;0.98;0.93;;;10.10;99.90;;;;;;5007761;28;20064;-79
2021/10/15 05:54:54;;;;;;;2.05;1.45;;;10.10;99.90;;;;;;5048834;28;20088;-81
2021/10/15 05:58:49;;;;;;;1.33;1.30;;;10.10;99.90;;;;;;5031800;28;20055;-80
2021/10/15 06:00:14;;;;;;;0.63;0.63;;;10.10;99.90;;;;;;5030830;28;20049;-80
2021/10/15 06:02:44;;;;;;;0.50;0.50;;;10.10;99.90;;;;;;5034304;28;20052;-78
2021/10/15 06:16:03;;;;;;;0.63;0.52;;;9.90;99.90;;;;;;5040996;28;20560;-80
2021/10/15 06:18:36;;;;;;;1.73;1.60;;;9.90;99.90;;;;;;5029674;28;20056;-78
2021/10/15 06:21:02;;;;;;;1.25;1.10;;;9.90;99.90;;;;;;5021250;28;20029;-79
2021/10/15 06:23:30;;;;;;;3.63;2.05;;;9.90;99.90;;;;;;5033727;28;20490;-81
2021/10/15 06:26:02;;;;;;;0.88;0.88;;;9.80;99.90;;;;;;5039317;28;20040;-80
2021/10/15 06:28:28;;;;;;;0.50;0.50;;;9.90;99.90;;;;;;5051064;28;20100;-80
2021/10/15 06:30:54;;;;;;;1.98;0.70;;;9.90;99.90;;;;;;5032052;28;20076;-80
2021/10/15 06:33:19;;;;;;;9.55;0.88;;;9.90;99.90;;;;;;5041810;28;20116;-78
2021/10/15 06:35:45;;;;;;;3.83;0.88;;;9.90;99.90;;;;;;5029764;28;20045;-79
2021/10/15 06:38:11;;;;;;;1.08;1.02;;;9.90;99.90;;;;;;5043813;28;20041;-80
2021/10/15 06:40:37;;;;;;;1.10;0.77;;;9.90;99.90;;;;;;5047600;28;20533;-78
2021/10/15 06:43:05;;;;;;;0.75;0.75;;;9.90;99.90;;;;;;5030264;28;20050;-80
2021/10/15 06:45:31;;;;;;;5.53;1.48;;;9.90;99.90;;;;;;5034444;28;20446;-80
2021/10/15 06:47:57;;;;;;;0.70;0.70;;;9.90;99.90;;;;;;5031263;28;20053;-79
2021/10/15 06:50:23;;;;;;;0.60;0.60;;;9.90;99.90;;;;;;5036434;28;20103;-80
2021/10/15 06:52:49;;;;;;;0.90;0.90;;;9.90;99.90;;;;;;5012487;28;20033;-79
2021/10/15 06:55:17;;;;;;;8.70;0.73;;;9.90;99.90;;;;;;5031244;28;20041;-80
2021/10/15 06:57:43;;;;;;;1.90;1.40;;;9.90;99.90;;;;;;5035017;28;20053;-79
2021/10/15 07:00:12;;;;;;;1.30;1.20;;;9.90;99.90;;;;;;5048221;28;20152;-80
2021/10/15 07:02:39;;;;;;;0.70;0.70;;;9.90;99.90;;;;;;5029777;28;20037;-79
2021/10/15 07:05:05;;;;;;;0.60;0.60;;;9.90;99.90;;;;;;5031887;28;20042;-79
2021/10/15 07:07:31;;;;;;;;;;;9.90;99.90;;;;;;5038969;28;20061;-79
2021/10/15 07:09:59;;;;;;;0.65;0.65;;;9.80;99.90;;;;;;5037862;28;20320;-79
2021/10/15 07:12:27;;;;;;;0.80;0.80;;;9.80;99.90;;;;;;5044311;28;20037;-78
2021/10/15 07:14:53;;;;;;;0.70;0.70;;;9.80;99.90;;;;;;5030174;28;20045;-79
2021/10/15 07:17:19;;;;;;;;;;;9.80;99.90;;;;;;5032920;28;20482;-79
2021/10/15 07:19:44;;;;;;;0.70;0.70;;;9.80;99.90;;;;;;5046386;28;19924;-79
2021/10/15 07:22:10;;;;;;;0.50;0.50;;;9.80;99.90;;;;;;5023209;28;20036;-79
2021/10/15 07:24:36;;;;;;;3.40;0.63;;;9.70;99.90;;;;;;5012858;28;20045;-79
2021/10/15 07:27:01;;;;;;;0.70;0.70;;;9.90;99.90;;;;;;4999156;28;20398;-78
2021/10/15 07:29:27;;;;;;;0.55;0.55;;;9.70;99.90;;;;;;5033649;28;20095;-77
2021/10/15 07:31:53;;;;;;;4.35;1.42;;;9.70;99.90;;;;;;5037953;28;20041;-78
2021/10/15 07:34:19;;;;;;;0.82;0.82;;;9.70;99.90;;;;;;5015183;28;20395;-76
2021/10/15 07:36:45;;;;;;;4.18;0.88;;;9.80;99.90;;;;;;5053084;28;20052;-76
2021/10/15 07:39:11;;;;;;;1.27;0.70;;;9.80;99.90;;;;;;5000304;28;20044;-79
2021/10/15 07:41:39;;;;;;;;;;;9.80;99.90;;;;;;5018016;28;20434;-79
2021/10/15 07:44:05;;;;;;;0.63;0.50;;;9.70;99.90;;;;;;5014148;28;19924;-78
2021/10/15 07:46:31;;;;;;;0.60;0.60;;;9.70;99.90;;;;;;5017285;28;20045;-77
2021/10/15 07:48:57;;;;;;;0.60;0.60;;;9.60;99.90;;;;;;5021905;28;20045;-76
2021/10/15 07:51:22;;;;;;;0.82;0.82;;;9.50;99.90;;;;;;5032096;28;20091;-79
2021/10/15 07:53:48;;;;;;;0.60;0.60;;;9.50;99.90;;;;;;5015038;28;20121;-76
2021/10/15 07:56:14;;;;;;;1.23;0.85;;;9.50;99.90;;;;;;5046958;28;20040;-77
2021/10/15 07:58:39;;;;;;;0.75;0.75;;;9.60;99.90;;;;;;5031514;28;20037;-76
2021/10/15 08:01:05;;;;;;;3.30;0.73;;;9.60;99.90;;;;;;5047347;28;20057;-76
2021/10/15 08:03:31;;;;;;;2.60;1.50;;;9.70;99.90;;;;;;5027087;28;20069;-78
2021/10/15 08:05:56;;;;;;;1.25;0.80;;;9.80;99.90;;;;;;5015380;28;20136;-78
2021/10/15 08:08:22;;;;;;;1.45;0.77;;;9.90;99.90;;;;;;5007421;28;20049;-76
2021/10/15 08:10:48;;;;;;;4.43;1.48;;;10.00;99.90;;;;;;5039466;28;20048;-77
2021/10/15 08:13:13;;;;;;;1.98;1.60;;;10.10;99.90;;;;;;5037374;28;20049;-79
2021/10/15 08:15:40;;;;;;;1.02;0.93;;;10.20;99.90;;;;;;5018864;28;20095;-79
2021/10/15 08:18:07;;;;;;;0.70;0.70;;;10.30;99.90;;;;;;5017197;28;20037;-77
2021/10/15 08:20:33;;;;;;;0.70;0.70;;;10.50;99.90;;;;;;5014759;28;20045;-78
2021/10/15 08:22:58;;;;;;;1.27;1.25;;;10.50;99.90;;;;;;5014323;28;20044;-78
2021/10/15 08:25:26;;;;;;;8.27;0.98;;;10.60;99.90;;;;;;5057422;28;20038;-79
2021/10/15 08:27:51;;;;;;;2.70;0.77;;;10.70;99.90;;;;;;4998141;28;20045;-78
2021/10/15 08:30:17;;;;;;;1.75;1.17;;;10.50;99.90;;;;;;5049180;28;20047;-77
2021/10/15 08:32:43;;;;;;;2.17;1.25;;;10.90;99.90;;;;;;5023205;28;20037;-77
2021/10/15 08:35:10;;;;;;;1.50;1.40;;;11.00;99.90;;;;;;5028322;28;20041;-80
2021/10/15 08:37:37;;;;;;;1.63;0.50;;;11.00;99.90;;;;;;5049805;28;20064;-79
2021/10/15 08:40:04;;;;;;;2.83;0.65;;;11.10;99.90;;;;;;5033009;28;20037;-78
2021/10/15 08:42:30;;;;;;;2.63;1.25;;;11.20;99.90;;;;;;5039258;28;20037;-78
2021/10/15 08:44:56;;;;;;;0.88;0.88;;;11.30;99.90;;;;;;5041318;28;20402;-79
2021/10/15 08:47:22;;;;;;;2.78;0.95;;;11.40;99.90;;;;;;5030587;28;20037;-81
2021/10/15 08:49:47;;;;;;;0.63;0.63;;;11.50;99.90;;;;;;5006448;28;20028;-78
2021/10/15 08:52:16;;;;;;;3.38;1.40;;;11.70;99.90;;;;;;5040765;28;20056;-79
2021/10/15 08:54:45;;;;;;;0.50;0.50;;;12.00;99.90;;;;;;5037211;28;20072;-81
2021/10/15 08:57:13;;;;;;;0.50;0.50;;;12.10;99.90;;;;;;5017030;28;20072;-82
2021/10/15 08:59:44;;;;;;;0.88;0.88;;;12.20;99.90;;;;;;5055673;28;20109;-81
2021/10/15 09:02:15;;;;;;;3.22;1.25;;;12.10;99.90;;;;;;5037446;28;20502;-77
2021/10/15 09:04:51;;;;;;;2.15;0.95;;;11.90;99.90;;;;;;5044010;28;20065;-82
2021/10/15 09:07:21;;;;;;;8.10;1.55;;;11.80;99.90;;;;;;5047792;28;20573;-82
2021/10/15 09:09:49;;;;;;;1.27;0.63;;;11.70;99.90;;;;;;5038648;28;20056;-81
2021/10/15 09:12:17;;;;;;;0.82;0.70;;;11.80;99.90;;;;;;5037824;28;20442;-79
2021/10/15 09:14:45;;;;;;;8.43;1.27;;;11.80;99.90;;;;;;5049572;28;20483;-80
2021/10/15 09:17:17;;;;;;;1.27;0.88;;;11.80;99.90;;;;;;5058189;28;20052;-82
2021/10/15 09:19:44;;;;;;;10.13;0.95;;;11.90;99.90;;;;;;5038135;28;20049;-80
2021/10/15 09:22:29;;;;;;;1.58;0.93;;;12.00;99.90;;;;;;5045563;28;20124;-81
2021/10/15 09:24:56;;;;;;;0.93;0.70;;;12.10;99.90;;;;;;5031870;28;20083;-81
2021/10/15 09:27:36;;;;;;;8.88;1.02;;;12.20;99.90;;;;;;5024072;28;20076;-78
2021/10/15 09:30:05;;;;;;;0.38;0.38;;;12.30;99.90;;;;;;5030127;28;20091;-80
2021/10/15 09:32:33;;;;;;;2.15;0.90;;;12.40;99.90;;;;;;5055843;28;20067;-81
2021/10/15 09:35:00;;;;;;;1.55;0.93;;;12.70;99.90;;;;;;5022976;28;20124;-80
2021/10/15 09:37:29;;;;;;;0.85;0.70;;;12.90;99.90;;;;;;5035192;28;20044;-82
2021/10/15 09:40:08;;;;;;;0.77;0.63;;;13.00;99.90;;;;;;5055312;28;20067;-82
2021/10/15 09:42:37;;;;;;;3.15;1.27;;;12.80;99.90;;;;;;5044479;28;20045;-81
2021/10/15 09:45:15;;;;;;;4.00;1.20;;;12.60;99.90;;;;;;5036232;28;20499;-78
2021/10/15 09:47:46;;;;;;;2.97;0.85;;;12.40;99.90;;;;;;5019522;28;20067;-79
2021/10/15 09:50:14;;;;;;;2.50;0.95;;;12.40;99.90;;;;;;5053139;28;20048;-80
2021/10/15 09:52:46;;;;;;;2.03;1.67;;;12.30;99.90;;;;;;5031242;28;20037;-81
2021/10/15 09:55:15;;;;;;;1.77;0.85;;;12.40;99.90;;;;;;5056056;28;20047;-80
2021/10/15 09:57:44;;;;;;;12.65;1.45;;;12.50;99.90;;;;;;5060429;28;20056;-80
2021/10/15 10:00:13;;;;;;;4.95;1.23;;;12.50;99.90;;;;;;5049170;28;20360;-81
2021/10/15 10:02:39;;;;;;;0.40;0.32;;;12.70;99.90;;;;;;5048835;28;20045;-80
2021/10/15 10:05:11;;;;;;;1.45;1.33;;;12.80;99.90;;;;;;5036218;28;20041;-78
2021/10/15 10:07:37;;;;;;;5.82;1.00;;;12.90;99.90;;;;;;5038402;28;20037;-81
2021/10/15 10:10:07;;;;;;;;;;;13.00;99.90;;;;;;5058965;28;20049;-78
2021/10/15 10:12:37;;;;;;;1.33;0.73;;;13.30;99.90;;;;;;5061637;28;19921;-81
2021/10/15 10:15:15;;;;;;;1.00;0.90;;;13.50;99.90;;;;;;5047299;28;20034;-81
2021/10/15 10:18:20;;;;;;;3.80;0.80;;;13.60;99.90;;;;;;5027812;28;20042;-82
2021/10/15 10:21:09;;;;;;;7.97;2.05;;;13.40;99.90;;;;;;5009531;28;20394;-79
2021/10/15 10:23:45;;;;;;;2.58;1.25;;;13.30;99.90;;;;;;5043441;28;20406;-81
2021/10/15 10:26:18;;;;;;;12.68;4.00;;;13.30;99.90;;;;;;5021789;28;20107;-79
2021/10/15 10:28:59;;;;;;;6.50;2.53;;;13.40;99.90;;;;;;5029880;28;20037;-81
2021/10/15 10:31:24;;;;;;;3.67;1.80;;;13.60;99.90;;;;;;5050734;28;20383;-82
2021/10/15 10:33:56;;;;;;;1.20;1.08;;;13.50;99.90;;;;;;5002808;28;20037;-79
2021/10/15 10:36:23;;;;;;;1.48;1.38;;;13.30;99.90;;;;;;5061371;28;20037;-80
2021/10/15 10:38:49;;;;;;;1.50;1.20;;;13.10;99.90;;;;;;5049572;28;20040;-80
2021/10/15 10:41:17;;;;;;;1.08;1.00;;;12.90;99.90;;;;;;5034307;28;20110;-80
2021/10/15 10:43:42;;;;;;;4.53;1.02;;;13.00;99.90;;;;;;5057583;28;20037;-81
2021/10/15 10:46:08;;;;;;;1.92;1.00;;;13.00;99.90;;;;;;5045859;28;20041;-78
2021/10/15 10:48:54;;;;;;;4.18;1.20;;;13.10;99.90;;;;;;5019364;28;20064;-84
2021/10/15 10:51:27;;;;;;;3.40;0.80;;;13.10;99.90;;;;;;5015748;28;20142;-82
2021/10/15 10:54:03;;;;;;;0.68;0.65;;;13.10;99.90;;;;;;5052758;28;20486;-78
2021/10/15 10:56:43;;;;;;;0.90;0.90;;;13.20;99.90;;;;;;5035808;28;20044;-80
2021/10/15 10:59:18;;;;;;;2.38;0.63;;;13.20;99.90;;;;;;5020439;28;20080;-80
2021/10/15 11:01:47;;;;;;;0.75;0.75;;;13.20;99.90;;;;;;5037273;28;20048;-81
2021/10/15 11:04:32;;;;;;;1.00;0.95;;;13.20;99.90;;;;;;5018805;28;20041;-80
2021/10/15 11:07:02;;;;;;;0.50;0.50;;;13.30;99.90;;;;;;5022727;28;20042;-82
2021/10/15 11:09:32;;;;;;;2.75;1.27;;;13.40;99.90;;;;;;5029329;28;20227;-79
2021/10/15 11:11:58;;;;;;;3.47;1.08;;;13.50;99.90;;;;;;5002834;28;20077;-82
2021/10/15 11:14:50;;;;;;;5.82;0.90;;;13.60;99.90;;;;;;5029084;28;20495;-81
2021/10/15 11:17:16;;;;;;;1.65;1.13;;;13.60;99.90;;;;;;5016991;28;20042;-80
2021/10/15 11:19:42;;;;;;;11.45;0.88;;;13.50;99.90;;;;;;5018063;28;20491;-81
2021/10/15 11:22:08;;;;;;;0.52;0.52;;;13.60;99.90;;;;;;5026912;28;20056;-81
2021/10/15 11:24:34;;;;;;;1.30;0.88;;;13.80;99.90;;;;;;5029699;28;20128;-82
2021/10/15 11:27:00;;;;;;;1.13;0.77;;;13.90;99.90;;;;;;5026376;28;20402;-80
2021/10/15 11:29:26;;;;;;;5.07;1.35;;;13.90;99.90;;;;;;5042051;28;20018;-81
2021/10/15 11:31:56;;;;;;;1.23;1.13;;;13.70;99.90;;;;;;5030176;28;20048;-81
2021/10/15 11:34:22;;;;;;;2.30;0.90;;;13.60;99.90;;;;;;5018517;28;20084;-82
2021/10/15 11:36:58;;;;;;;;;;;13.70;99.90;;;;;;5009125;28;20454;-78
2021/10/15 11:39:24;;;;;;;3.28;0.95;;;13.80;99.90;;;;;;5013494;28;20476;-79
2021/10/15 11:41:50;;;;;;;4.07;1.40;;;14.00;99.90;;;;;;5045815;28;20041;-82
2021/10/15 11:44:34;;;;;;;4.53;1.10;;;14.20;99.90;;;;;;5032948;28;20505;-80
2021/10/15 11:47:00;;;;;;;4.93;1.27;;;14.30;99.90;;;;;;5032079;28;20049;-79
2021/10/15 11:49:35;;;;;;;2.50;1.10;;;14.40;99.90;;;;;;4995398;28;20037;-81
2021/10/15 11:52:01;;;;;;;1.33;0.82;;;14.20;99.90;;;;;;5026266;28;20049;-81
2021/10/15 11:54:26;;;;;;;6.32;1.45;;;14.00;99.90;;;;;;5038073;28;20037;-81
2021/10/15 11:56:52;;;;;;;5.47;1.15;;;14.00;99.90;;;;;;5025088;28;20041;-81
2021/10/15 11:59:26;;;;;;;1.10;0.98;;;14.00;99.90;;;;;;5028190;28;20156;-79
2021/10/15 12:01:51;;;;;;;1.80;0.88;;;14.20;99.90;;;;;;5026677;28;20140;-80
2021/10/15 12:04:17;;;;;;;5.60;1.38;;;14.30;99.90;;;;;;5011881;28;20084;-79
2021/10/15 12:06:46;;;;;;;0.52;0.50;;;14.20;99.90;;;;;;5043266;28;20390;-81
2021/10/15 12:09:11;;;;;;;3.08;1.25;;;14.10;99.90;;;;;;5028236;28;20055;-81
2021/10/15 12:11:40;;;;;;;4.22;0.90;;;13.90;99.90;;;;;;5024288;28;20510;-80
2021/10/15 12:14:06;;;;;;;6.97;0.68;;;13.90;99.90;;;;;;5012252;28;20041;-80
2021/10/15 12:16:42;;;;;;;3.42;0.80;;;13.90;99.90;;;;;;5020779;28;20043;-80
2021/10/15 12:19:12;;;;;;;0.82;0.70;;;13.80;99.90;;;;;;5033773;28;20041;-81
2021/10/15 12:21:39;;;;;;;5.75;0.80;;;13.60;99.90;;;;;;5030553;28;20521;-80
2021/10/15 12:24:07;;;;;;;0.60;0.60;;;13.60;99.90;;;;;;5014214;28;20076;-79
2021/10/15 12:26:34;;;;;;;0.60;0.57;;;13.70;99.90;;;;;;5032653;28;20045;-79
2021/10/15 12:29:00;;;;;;;0.82;0.82;;;13.90;99.90;;;;;;5019177;28;20083;-80
2021/10/15 12:31:29;;;;;;;1.48;1.13;;;14.00;99.90;;;;;;5033347;28;20033;-79
2021/10/15 12:34:08;;;;;;;3.95;0.90;;;14.00;99.90;;;;;;5015397;28;20376;-80
2021/10/15 12:36:36;;;;;;;1.35;0.93;;;14.10;99.90;;;;;;5028721;28;20136;-81
2021/10/15 12:39:14;;;;;;;0.60;0.60;;;14.00;99.90;;;;;;5030501;28;20439;-79
2021/10/15 12:41:40;;;;;;;3.70;1.30;;;14.00;99.90;;;;;;5042294;28;20076;-80
2021/10/15 12:44:22;;;;;;;1.95;0.65;;;13.90;99.90;;;;;;5043175;28;20481;-80
2021/10/15 12:47:06;;;;;;;1.75;0.88;;;13.90;99.90;;;;;;5024510;28;20029;-79
2021/10/15 12:49:56;;;;;;;0.98;0.90;;;13.90;99.90;;;;;;5028093;28;20047;-81
2021/10/15 12:52:33;;;;;;;3.15;1.30;;;14.00;99.90;;;;;;5043374;28;20041;-80
2021/10/15 12:55:12;;;;;;;0.50;0.50;;;13.90;99.90;;;;;;5045813;28;20034;-78
2021/10/15 12:57:37;;;;;;;1.15;0.93;;;12.50;99.90;;;;;;5038026;28;20052;-80
2021/10/15 13:00:19;;;;;;;2.55;0.60;;;13.90;99.90;;;;;;5003163;28;20102;-80
2021/10/15 13:02:47;;;;;;;6.72;1.13;;;14.00;99.90;;;;;;5037275;28;20088;-82
2021/10/15 13:05:13;;;;;;;1.38;0.77;;;14.10;99.90;;;;;;5051698;28;20122;-80
2021/10/15 13:07:40;;;;;;;1.50;0.80;;;14.20;99.90;;;;;;5032310;28;20065;-79
2021/10/15 13:10:21;;;;;;;1.85;1.30;;;14.30;99.90;;;;;;5052474;28;20041;-78